Maike D — V2FO4 — position and weather

sailwx.info

Track history (hours):
 
Tides and Currents Weather Stations Pressure Air Temp Water Temp Dewpoint Dewpoint Depression Visibility Wind Speed Wind Dir Waves Ship Positions

Maike D

Last reported at 2014-Sep-30 04:31 UTC. Time now 2014-Oct-01 12:28 UTC.
Position N 32°16' E 034°36'.

Length 133 m; draft 7.2 m.

Type: Ship (hazmat cat A). MMSI: 305739000.

Date/timePositionNaut miles runAvg speedWind from/ knotsBaromVisibWave heightAir tempDewpointWater temp
2014-Sep-30 04:31N 32°16' E 034°36'1213.0
2014-Sep-30 03:33N 32°28' E 034°41'1312.9
2014-Sep-30 02:33N 32°40' E 034°45'  
2014-Sep-26 18:16N 36°15' E 026°56'3013.5
2014-Sep-26 16:04N 36°38' E 026°33'713.9
2014-Sep-26 15:32N 36°44' E 026°27'1713.9
2014-Sep-26 14:18N 36°57' E 026°13'1013.5
2014-Sep-26 13:34N 37°06' E 026°08'1313.5
2014-Sep-26 12:34N 37°18' E 025°60'1313.0
2014-Sep-26 11:33N 37°29' E 025°52'2512.2
2014-Sep-26 09:29N 37°54' E 025°48'219 4.5
2014-Sep-24 08:18N 40°44' E 028°47'1013.7
2014-Sep-24 07:33N 40°45' E 029°00'1313.2
2014-Sep-24 06:33N 40°45' E 029°18'1111.2
2014-Sep-24 05:32N 40°45' E 029°33'1 0.0
2014-Sep-23 04:33N 40°45' E 029°32'9 9.0
2014-Sep-23 03:33N 40°44' E 029°20'1212.0
2014-Sep-23 02:34N 40°44' E 029°04'1313.1
2014-Sep-23 01:33N 40°38' E 028°49'17 8.1
2014-Sep-22 23:24N 40°25' E 029°05'0 0.0
2014-Sep-22 07:07N 40°25' E 029°05'3 0.4
2014-Sep-21 23:25N 40°28' E 029°04'0 0.0
2014-Sep-21 21:19N 40°28' E 029°04'18 4.5
2014-Sep-21 17:20N 40°34' E 028°42'23 2.0
2014-Sep-21 06:19N 40°57' E 028°41'7 8.6
2014-Sep-21 05:32N 40°50' E 028°40'  
Track history (hours):
 
Tides and Currents Weather Stations Pressure Air Temp Water Temp Dewpoint Dewpoint Depression Visibility Wind Speed Wind Dir Waves Ship Positions

Maike D

Last reported at 2014-Sep-30 04:31 UTC. Time now 2014-Oct-01 12:28 UTC.
Position N 32°16' E 034°36'.

Length 133 m; draft 7.2 m.

Type: Ship (hazmat cat A). MMSI: 305739000.

Date/timePositionNaut miles runAvg speedWind from/ knotsBaromVisibWave heightAir tempDewpointWater temp
2014-Sep-30 04:31N 32°16' E 034°36'1213.0
2014-Sep-30 03:33N 32°28' E 034°41'1312.9
2014-Sep-30 02:33N 32°40' E 034°45'  
2014-Sep-26 18:16N 36°15' E 026°56'3013.5
2014-Sep-26 16:04N 36°38' E 026°33'713.9
2014-Sep-26 15:32N 36°44' E 026°27'1713.9
2014-Sep-26 14:18N 36°57' E 026°13'1013.5
2014-Sep-26 13:34N 37°06' E 026°08'1313.5
2014-Sep-26 12:34N 37°18' E 025°60'1313.0
2014-Sep-26 11:33N 37°29' E 025°52'2512.2
2014-Sep-26 09:29N 37°54' E 025°48'219 4.5
2014-Sep-24 08:18N 40°44' E 028°47'1013.7
2014-Sep-24 07:33N 40°45' E 029°00'1313.2
2014-Sep-24 06:33N 40°45' E 029°18'1111.2
2014-Sep-24 05:32N 40°45' E 029°33'1 0.0
2014-Sep-23 04:33N 40°45' E 029°32'9 9.0
2014-Sep-23 03:33N 40°44' E 029°20'1212.0
2014-Sep-23 02:34N 40°44' E 029°04'1313.1
2014-Sep-23 01:33N 40°38' E 028°49'17 8.1
2014-Sep-22 23:24N 40°25' E 029°05'0 0.0
2014-Sep-22 07:07N 40°25' E 029°05'3 0.4
2014-Sep-21 23:25N 40°28' E 029°04'0 0.0
2014-Sep-21 21:19N 40°28' E 029°04'18 4.5
2014-Sep-21 17:20N 40°34' E 028°42'23 2.0
2014-Sep-21 06:19N 40°57' E 028°41'7 8.6
2014-Sep-21 05:32N 40°50' E 028°40'  

Dump ship's entire track history